createdAt,value
2022-10-10T00:00:38.958Z,4.35
2022-10-10T00:05:40.462Z,4.22
2022-10-10T00:10:41.800Z,4.17
2022-10-10T00:15:48.861Z,4.32
2022-10-10T00:20:51.791Z,5.33
2022-10-10T00:25:53.034Z,7.20
2022-10-10T00:30:54.257Z,7.45
2022-10-10T00:35:55.490Z,5.63
2022-10-10T00:40:56.790Z,4.50
2022-10-10T00:45:58.309Z,4.00
2022-10-10T00:51:05.954Z,3.65
2022-10-10T00:56:07.861Z,4.43
2022-10-10T01:01:09.253Z,4.23
2022-10-10T01:06:10.750Z,3.58
2022-10-10T01:11:18.057Z,3.60
2022-10-10T01:16:24.918Z,3.90
2022-10-10T01:21:29.732Z,3.42
2022-10-10T01:26:37.792Z,3.70
2022-10-10T01:31:39.645Z,3.60
2022-10-10T01:36:40.855Z,4.00
2022-10-10T01:41:44.201Z,3.67
2022-10-10T01:46:45.477Z,3.60
2022-10-10T01:52:09.602Z,3.63
2022-10-10T01:57:22.085Z,3.70
2022-10-10T02:02:26.257Z,3.23
2022-10-10T02:07:39.456Z,3.60
2022-10-10T02:12:40.832Z,3.92
2022-10-10T02:17:43.382Z,3.63
2022-10-10T02:22:45.295Z,3.92
2022-10-10T02:27:49.878Z,3.97
2022-10-10T02:32:52.761Z,3.35
2022-10-10T02:37:54.624Z,3.67
2022-10-10T02:42:58.935Z,3.50
2022-10-10T02:48:00.690Z,3.30
2022-10-10T02:53:01.928Z,3.53
2022-10-10T02:58:03.216Z,3.50
2022-10-10T03:03:04.475Z,3.40
2022-10-10T03:08:10.669Z,3.27
2022-10-10T03:13:12.770Z,4.82
2022-10-10T03:18:14.113Z,3.53
2022-10-10T03:23:15.403Z,3.40
2022-10-10T03:28:16.745Z,3.40
2022-10-10T03:33:18.037Z,3.00
2022-10-10T03:38:19.278Z,3.20
2022-10-10T03:43:20.782Z,3.23
2022-10-10T03:48:22.044Z,3.75
2022-10-10T03:53:23.327Z,3.67
2022-10-10T03:58:24.609Z,3.13
2022-10-10T04:03:26.133Z,4.07
2022-10-10T04:08:28.194Z,3.43
2022-10-10T04:13:29.421Z,3.60
2022-10-10T04:18:30.642Z,3.45
2022-10-10T04:23:31.860Z,3.90
2022-10-10T04:28:33.226Z,3.95
2022-10-10T04:33:34.616Z,3.70
2022-10-10T04:38:36.180Z,3.67
2022-10-10T04:43:39.284Z,4.05
2022-10-10T04:48:40.529Z,4.03
2022-10-10T04:53:41.780Z,3.97
2022-10-10T04:58:43.005Z,3.80
2022-10-10T05:03:44.275Z,3.75
2022-10-10T05:08:45.556Z,4.00
2022-10-10T05:13:47.056Z,3.80
2022-10-10T05:18:48.329Z,3.70
2022-10-10T05:23:49.649Z,3.67
2022-10-10T05:28:50.918Z,3.97
2022-10-10T05:33:52.231Z,4.15
2022-10-10T05:38:53.463Z,4.27
2022-10-10T05:43:54.734Z,3.60
2022-10-10T05:48:56.023Z,3.57
2022-10-10T05:53:57.450Z,3.78
2022-10-10T05:58:58.703Z,5.55
2022-10-10T06:04:00.112Z,4.20
2022-10-10T06:09:01.383Z,4.20
2022-10-10T06:14:02.658Z,3.40
2022-10-10T06:19:03.952Z,3.58
2022-10-10T06:24:06.029Z,3.83
2022-10-10T06:29:07.415Z,3.83
2022-10-10T06:34:08.700Z,3.35
2022-10-10T06:39:09.976Z,3.97
2022-10-10T06:44:11.658Z,4.15
2022-10-10T06:49:13.007Z,3.83
2022-10-10T06:54:14.264Z,4.63
2022-10-10T06:59:15.497Z,3.60
2022-10-10T07:04:16.754Z,3.67
2022-10-10T07:09:18.800Z,6.07
2022-10-10T07:14:20.045Z,4.15
2022-10-10T07:19:23.487Z,5.40
2022-10-10T07:24:24.905Z,4.85
2022-10-10T07:29:28.105Z,5.37
2022-10-10T07:34:29.364Z,5.25
2022-10-10T07:39:30.615Z,8.80
2022-10-10T07:44:34.538Z,5.00
2022-10-10T07:49:36.048Z,6.38
2022-10-10T07:54:37.304Z,6.07
2022-10-10T07:59:40.591Z,6.00
2022-10-10T08:04:41.916Z,4.93
2022-10-10T08:09:43.138Z,4.90
2022-10-10T08:14:44.435Z,4.10
2022-10-10T08:19:45.696Z,4.60
2022-10-10T08:24:46.926Z,4.93
2022-10-10T08:29:48.190Z,4.18
2022-10-10T08:34:49.684Z,4.35
2022-10-10T08:39:50.983Z,3.97
2022-10-10T08:44:55.244Z,5.45
2022-10-10T08:50:10.606Z,3.67
2022-10-10T08:55:17.181Z,3.60
2022-10-10T09:00:21.498Z,3.50
2022-10-10T09:05:42.611Z,3.08
2022-10-10T09:10:54.357Z,2.90
2022-10-10T09:15:57.826Z,3.97
2022-10-10T09:20:59.476Z,3.03
2022-10-10T09:26:00.912Z,3.47
2022-10-10T09:31:02.867Z,3.37
2022-10-10T09:36:06.900Z,3.15
2022-10-10T09:41:14.857Z,3.20
2022-10-10T09:46:16.142Z,2.93
2022-10-10T09:51:18.960Z,3.77
2022-10-10T09:56:28.101Z,4.57
2022-10-10T10:01:33.749Z,3.38
2022-10-10T10:06:35.417Z,3.70
2022-10-10T10:11:39.419Z,3.10
2022-10-10T10:16:40.864Z,3.20
2022-10-10T10:21:51.737Z,3.37
2022-10-10T10:26:52.984Z,3.40
2022-10-10T10:32:00.221Z,2.90
2022-10-10T10:37:18.086Z,3.07
2022-10-10T10:42:29.278Z,3.30
2022-10-10T10:47:30.536Z,2.72
2022-10-10T10:53:01.090Z,3.20
2022-10-10T10:58:43.375Z,2.60
2022-10-10T11:05:19.928Z,3.40
2022-10-10T11:09:31.001Z,3.47
2022-10-10T11:14:47.410Z,2.80
2022-10-10T11:19:56.564Z,2.60
2022-10-10T11:25:16.298Z,3.00
2022-10-10T11:30:23.163Z,4.03
2022-10-10T11:35:33.215Z,3.17
2022-10-10T11:40:34.531Z,3.47
2022-10-10T11:45:39.192Z,4.40
2022-10-10T11:50:50.761Z,3.87
2022-10-10T11:55:56.418Z,2.42
2022-10-10T12:01:23.736Z,4.05
2022-10-10T12:06:28.371Z,2.20
2022-10-10T12:11:38.011Z,4.63
2022-10-10T12:16:39.577Z,2.53
2022-10-10T12:21:57.493Z,2.57
2022-10-10T12:26:58.710Z,2.73
2022-10-10T12:32:15.373Z,2.75
2022-10-10T12:37:27.207Z,3.28
2022-10-10T12:42:30.067Z,3.77
2022-10-10T12:48:00.261Z,4.07
2022-10-10T12:53:00.244Z,3.70
2022-10-10T12:58:03.263Z,3.10
2022-10-10T13:03:09.766Z,3.05
2022-10-10T13:08:16.597Z,3.58
2022-10-10T13:13:18.929Z,8.03
2022-10-10T13:18:33.690Z,3.40
2022-10-10T13:23:36.736Z,2.75
2022-10-10T13:28:38.051Z,3.22
2022-10-10T13:33:40.544Z,2.90
2022-10-10T13:38:41.825Z,4.95
2022-10-10T13:43:43.207Z,3.72
2022-10-10T13:48:44.457Z,3.77
2022-10-10T13:53:47.105Z,7.65
2022-10-10T13:58:53.545Z,7.15
2022-10-10T14:03:58.332Z,4.00
2022-10-10T14:09:07.499Z,7.20
2022-10-10T14:14:15.188Z,6.35
2022-10-10T14:19:24.736Z,2.90
2022-10-10T14:24:26.402Z,3.10
2022-10-10T14:29:27.741Z,4.20
2022-10-10T14:34:29.087Z,3.75
2022-10-10T14:39:30.330Z,4.17
2022-10-10T14:44:31.565Z,3.90
2022-10-10T14:49:32.904Z,4.50
2022-10-10T14:54:34.408Z,3.03
2022-10-10T14:59:47.309Z,3.87
2022-10-10T15:04:51.063Z,4.65
2022-10-10T15:10:26.128Z,5.63
2022-10-10T15:15:14.047Z,3.77
2022-10-10T15:20:15.670Z,3.45
2022-10-10T15:25:16.948Z,4.35
2022-10-10T15:30:18.557Z,4.07
2022-10-10T15:35:20.914Z,3.10
2022-10-10T15:40:23.047Z,3.42
2022-10-10T15:45:44.028Z,3.30
2022-10-10T15:50:46.098Z,4.50
2022-10-10T15:55:47.744Z,4.60
2022-10-10T16:00:49.081Z,4.40
2022-10-10T16:05:50.613Z,3.90
2022-10-10T16:10:51.924Z,3.92
2022-10-10T16:15:57.099Z,4.45
2022-10-10T16:20:58.568Z,4.00
2022-10-10T16:26:10.617Z,4.20
2022-10-10T16:31:13.343Z,4.05
2022-10-10T16:36:18.815Z,3.97
2022-10-10T16:41:42.890Z,4.37
2022-10-10T16:46:41.962Z,3.70
2022-10-10T16:51:43.210Z,3.95
2022-10-10T16:56:44.463Z,4.73
2022-10-10T17:01:45.838Z,9.02
2022-10-10T17:06:47.091Z,4.53
2022-10-10T17:11:51.370Z,3.87
2022-10-10T17:17:11.049Z,4.18
2022-10-10T17:22:13.364Z,4.90
2022-10-10T17:27:14.636Z,6.93
2022-10-10T17:32:15.902Z,4.77
2022-10-10T17:37:17.132Z,5.43
2022-10-10T17:42:18.413Z,5.90
2022-10-10T17:47:19.924Z,5.13
2022-10-10T17:52:21.694Z,5.30
2022-10-10T17:57:22.949Z,5.10
2022-10-10T18:02:24.243Z,8.00
2022-10-10T18:07:25.509Z,9.23
2022-10-10T18:12:26.795Z,6.85
2022-10-10T18:17:28.031Z,6.13
2022-10-10T18:22:29.364Z,6.73
2022-10-10T18:27:30.627Z,7.28
2022-10-10T18:32:31.926Z,6.10
2022-10-10T18:37:34.799Z,5.63
2022-10-10T18:42:36.333Z,5.57
2022-10-10T18:47:37.584Z,5.68
2022-10-10T18:52:38.938Z,6.07
2022-10-10T18:57:40.502Z,6.53
2022-10-10T19:02:41.760Z,7.40
2022-10-10T19:07:43.046Z,6.70
2022-10-10T19:12:47.287Z,7.72
2022-10-10T19:17:48.711Z,6.63
2022-10-10T19:22:49.953Z,6.50
2022-10-10T19:27:51.199Z,6.10
2022-10-10T19:32:52.474Z,6.40
2022-10-10T19:37:53.769Z,6.00
2022-10-10T19:42:55.024Z,5.90
2022-10-10T19:47:56.306Z,5.82
2022-10-10T19:52:58.189Z,4.95
2022-10-10T19:58:01.333Z,4.70
2022-10-10T20:03:02.541Z,3.78
2022-10-10T20:08:03.951Z,3.08
2022-10-10T20:13:05.208Z,3.20
2022-10-10T20:18:06.478Z,3.50
2022-10-10T20:23:08.168Z,3.67
2022-10-10T20:28:10.024Z,3.05
2022-10-10T20:33:12.368Z,3.10
2022-10-10T20:38:13.890Z,3.70
2022-10-10T20:43:16.361Z,2.80
2022-10-10T20:48:17.610Z,2.90
2022-10-10T20:53:18.831Z,3.22
2022-10-10T20:58:20.198Z,2.90
2022-10-10T21:03:21.477Z,2.87
2022-10-10T21:08:22.684Z,4.00
2022-10-10T21:13:23.969Z,3.75
2022-10-10T21:18:25.267Z,3.83
2022-10-10T21:23:27.466Z,3.10
2022-10-10T21:28:28.737Z,3.10
2022-10-10T21:33:30.614Z,2.30
2022-10-10T21:38:31.842Z,2.43
2022-10-10T21:43:33.502Z,2.78
2022-10-10T21:48:34.926Z,2.53
2022-10-10T21:53:36.266Z,3.20
2022-10-10T21:58:39.131Z,4.13
2022-10-10T22:03:41.039Z,3.08
2022-10-10T22:08:42.744Z,3.20
2022-10-10T22:13:44.431Z,3.30
2022-10-10T22:18:45.869Z,3.70
2022-10-10T22:23:47.164Z,3.10
2022-10-10T22:28:48.488Z,3.17
2022-10-10T22:33:49.734Z,3.13
2022-10-10T22:38:50.988Z,3.75
2022-10-10T22:43:52.344Z,3.30
2022-10-10T22:48:53.568Z,3.33
2022-10-10T22:53:54.811Z,2.60
2022-10-10T22:58:56.072Z,2.90
2022-10-10T23:04:00.536Z,3.03
2022-10-10T23:09:02.076Z,2.92
2022-10-10T23:14:03.420Z,3.00
2022-10-10T23:19:04.646Z,3.40
2022-10-10T23:24:06.010Z,3.20
2022-10-10T23:29:08.037Z,3.47
2022-10-10T23:34:09.320Z,3.20
2022-10-10T23:39:10.577Z,3.37
2022-10-10T23:44:11.799Z,3.22
2022-10-10T23:49:13.039Z,3.38
2022-10-10T23:54:14.311Z,3.43
2022-10-10T23:59:15.717Z,3.28
